Norwegian Dream — C6LG5 — position and weather

sailwx.info

Track history (hours):
 
Tides and Currents Weather Stations Pressure Air Temp Water Temp Dewpoint Dewpoint Depression Visibility Wind Speed Wind Dir Waves Ship Positions

Norwegian Dream

Operator: Norwegian Cruise Line

Last reported at 2017-May-28 06:23 UTC. Time now 2017-May-28 06:45 UTC.
Position N 01°16' E 103°49'.

Type: Ship. MMSI: 308272000.

Date/timePositionNaut miles runAvg speedWind from/ knotsBaromVisibWave heightAir tempDewpointWater temp
2017-May-28 06:23N 01°16' E 103°49'0 0.0
2017-May-28 05:20N 01°16' E 103°49'0 0.0
2017-May-28 04:51N 01°16' E 103°49'0 0.0
2017-May-28 04:24N 01°16' E 103°49'0 0.0
2017-May-28 02:54N 01°16' E 103°49'0 0.0
2017-May-28 02:30N 01°16' E 103°49'0 0.0
2017-May-28 01:44N 01°16' E 103°49'0 0.0
2017-May-28 01:29N 01°16' E 103°49'1 2.5
2017-May-28 01:00N 01°15' E 103°48'4 7.8
2017-May-28 00:30N 01°12' E 103°50'4 9.0
2017-May-28 00:00N 01°09' E 103°46'510.1
2017-May-27 23:30N 01°05' E 103°43'5 8.8
2017-May-27 22:57N 01°03' E 103°39'4 8.0
2017-May-27 22:30N 01°05' E 103°35'4 8.2
2017-May-27 22:00N 01°07' E 103°32'5 8.1
2017-May-27 21:25N 01°09' E 103°28'4 8.2
2017-May-27 20:59N 01°11' E 103°25'5 8.1
2017-May-27 20:22N 01°14' E 103°21'4 8.1
2017-May-27 19:55N 01°16' E 103°18'1910.1
2017-May-27 18:00N 01°24' E 103°00'15 6.3 090 / 101009.010.8 28.025.329.0
2017-May-27 15:34N 01°35' E 102°50'1 7.0
2017-May-27 15:28N 01°36' E 102°49'4 7.4
2017-May-27 14:56N 01°38' E 102°46'24 1.6
2017-May-27 00:24N 01°51' E 102°27'2 4.9
2017-May-27 00:00N 01°50' E 102°28'3 5.1
2017-May-26 23:27N 01°49' E 102°31'3 5.7
2017-May-26 22:58N 01°48' E 102°33'6 6.6
2017-May-26 22:06N 01°45' E 102°39'1 7.3
2017-May-26 22:00N 01°45' E 102°39'4 7.1
2017-May-26 21:24N 01°43' E 102°43'3 7.3
2017-May-26 20:59N 01°42' E 102°46'23 7.6
2017-May-26 18:00N 01°24' E 103°00'37 8.2 080 / 101010.010.8 28.025.329.0
2017-May-26 13:27N 01°11' E 103°35'715.1
2017-May-26 12:59N 01°10' E 103°42'714.2
2017-May-26 12:29N 01°11' E 103°49'4 9.0
2017-May-26 12:00N 01°15' E 103°47'2 0.9
2017-May-26 09:58N 01°16' E 103°49'0 0.0
2017-May-26 08:37N 01°16' E 103°49'0 0.0
2017-May-26 07:27N 01°16' E 103°49'0 0.0
2017-May-26 06:54N 01°16' E 103°49'0 0.0
2017-May-26 06:30N 01°16' E 103°49'0 0.0
2017-May-26 05:54N 01°16' E 103°49'0 0.0
2017-May-26 05:30N 01°16' E 103°49'0 0.0
2017-May-26 04:57N 01°16' E 103°49'0 0.0
2017-May-26 04:21N 01°16' E 103°49'0 0.0
2017-May-26 04:00N 01°16' E 103°49'0 0.1
2017-May-26 03:30N 01°16' E 103°49'2 4.3
2017-May-26 03:00N 01°15' E 103°47'4 8.4
2017-May-26 02:30N 01°12' E 103°50'5 9.0
2017-May-26 02:00N 01°09' E 103°46'510.9
2017-May-26 01:30N 01°05' E 103°42'5 9.9
2017-May-26 01:00N 01°04' E 103°38'4 8.8
2017-May-26 00:30N 01°07' E 103°34'4 7.1
2017-May-25 23:59N 01°10' E 103°34'1 1.1
2017-May-25 23:30N 01°11' E 103°35'1 2.0
2017-May-25 22:59N 01°10' E 103°34'611.9
2017-May-25 22:29N 01°10' E 103°28'914.6
2017-May-25 21:53N 01°15' E 103°20'39 9.9
2017-May-25 18:00N 01°36' E 102°48'4 5.8 040 / 141011.010.8 28.025.329.0
2017-May-25 17:21N 01°38' E 102°45'16 7.9
2017-May-25 15:16N 01°45' E 102°30'5 7.9
2017-May-25 14:38N 01°47' E 102°25'1 7.3
2017-May-25 14:27N 01°48' E 102°24'22 6.6
2017-May-25 11:03N 02°08' E 102°14'1 8.6
2017-May-25 10:59N 02°08' E 102°14'2 3.8
2017-May-25 10:29N 02°10' E 102°14'0 0.3
2017-May-25 09:57N 02°10' E 102°14'22 1.9
2017-May-24 22:38N 01°53' E 102°27'313.4
2017-May-24 22:25N 01°51' E 102°30'512.4
2017-May-24 21:59N 01°49' E 102°35'612.5
2017-May-24 21:30N 01°46' E 102°40'6316.9
2017-May-24 17:47N 01°12' E 103°33'411.4
2017-May-24 17:25N 01°11' E 103°37'512.5
2017-May-24 16:59N 01°09' E 103°42'511.1
2017-May-24 16:30N 01°10' E 103°47'4 7.6
2017-May-24 16:00N 01°14' E 103°47'3 0.5
2017-May-24 10:18N 01°16' E 103°49'0 1.0
2017-May-24 09:56N 01°16' E 103°49'3 7.7
2017-May-24 09:30N 01°15' E 103°46'1012.2
2017-May-24 08:42N 01°12' E 103°36'411.7
2017-May-24 08:18N 01°11' E 103°32'4812.7
2017-May-24 04:31N 01°36' E 102°51'213.6
2017-May-24 04:23N 01°37' E 102°49'513.4
2017-May-24 04:00N 01°39' E 102°45'2015.7
2017-May-24 02:45N 01°49' E 102°27'25915.5
2017-May-23 10:04N 05°19' E 099°56'2115.6
2017-May-23 08:43N 05°39' E 099°50'10 0.7
2017-May-22 18:00N 05°42' E 100°00'20 9.5 040 / 101011.010.8 28.025.328.0
2017-May-22 15:54N 05°32' E 100°17'811.9
2017-May-22 15:14N 05°25' E 100°21'0 1.4
2017-May-22 15:00N 05°25' E 100°21'0 0.0
2017-May-22 14:00N 05°25' E 100°21'0 0.0
2017-May-22 13:24N 05°25' E 100°21'0 0.0
2017-May-22 13:00N 05°25' E 100°21'0 0.0
2017-May-22 12:30N 05°25' E 100°21'0 0.0
2017-May-22 12:00N 05°25' E 100°21'0 0.0
2017-May-22 11:30N 05°25' E 100°21'0 0.0
2017-May-22 11:00N 05°25' E 100°21'0 0.0
2017-May-22 10:30N 05°25' E 100°21'0 0.0
2017-May-22 10:00N 05°25' E 100°21'0 0.0
2017-May-22 09:31N 05°25' E 100°21'0 0.0
2017-May-22 09:00N 05°25' E 100°21'0 0.0
2017-May-22 08:31N 05°25' E 100°21'0 0.0
2017-May-22 08:01N 05°25' E 100°21'0 0.3
2017-May-22 07:31N 05°25' E 100°21'4 7.8
2017-May-22 07:00N 05°29' E 100°20'913.6
2017-May-22 06:23N 05°34' E 100°13'1613.8
2017-May-22 05:14N 05°21' E 100°05'18316.3
2017-May-21 18:00N 02°36' E 101°24'9016.5 160 / 81009.010.8 29.026.330.0
2017-May-21 12:30N 01°45' E 102°39'816.7
2017-May-21 12:00N 01°42' E 102°46'5616.0
2017-May-21 08:28N 01°12' E 103°34'612.8
2017-May-21 07:59N 01°13' E 103°40'612.9
2017-May-21 07:30N 01°16' E 103°46'4 6.9
2017-May-21 06:59N 01°16' E 103°49'0 0.0
2017-May-21 06:04N 01°16' E 103°49'0 0.0
2017-May-21 05:58N 01°16' E 103°49'0 0.0
2017-May-21 05:28N 01°16' E 103°49'0 0.0
2017-May-21 04:41N 01°16' E 103°49'0 0.0
2017-May-21 04:29N 01°16' E 103°49'0 0.0
2017-May-21 03:44N 01°16' E 103°49'0 0.0
2017-May-21 03:26N 01°16' E 103°49'0 0.0
2017-May-21 02:59N 01°16' E 103°49'0 0.0
2017-May-21 01:32N 01°16' E 103°49'0 0.1
2017-May-21 01:30N 01°16' E 103°49'2 3.1
2017-May-21 00:59N 01°15' E 103°48'4 9.1
2017-May-21 00:30N 01°11' E 103°50'5 8.7
2017-May-20 23:59N 01°09' E 103°46'511.0
2017-May-20 23:30N 01°05' E 103°43'4 8.2
2017-May-20 23:00N 01°03' E 103°39'4 7.9
2017-May-20 22:30N 01°05' E 103°36'4 8.3
2017-May-20 21:58N 01°07' E 103°32'4 8.3
2017-May-20 21:29N 01°09' E 103°28'32 9.2
2017-May-20 18:00N 01°24' E 103°00'29 1.6 180 / 121008.010.8 28.025.329.0
2017-May-20 00:27N 01°45' E 102°40'3 6.3
2017-May-19 23:56N 01°43' E 102°43'3 6.3
2017-May-19 23:30N 01°42' E 102°45'3 6.6
2017-May-19 23:00N 01°41' E 102°48'33 6.5
2017-May-19 18:00N 01°18' E 103°12'22 8.7 180 / 61011.010.8 29.025.030.0
2017-May-19 15:27N 01°12' E 103°33'715.5
2017-May-19 14:59N 01°10' E 103°40'7 7.7
2017-May-19 14:00N 01°14' E 103°47'3 5.7
2017-May-19 13:30N 01°16' E 103°49'0 0.1
2017-May-19 12:49N 01°16' E 103°49'0 0.0
2017-May-19 12:28N 01°16' E 103°49'0 0.0
2017-May-19 11:55N 01°16' E 103°49'0 0.0
2017-May-19 11:28N 01°16' E 103°49'0 0.0
2017-May-19 10:58N 01°16' E 103°49'0 0.0
2017-May-19 10:28N 01°16' E 103°49'0 0.0
2017-May-19 09:49N 01°16' E 103°49'0 0.0
2017-May-19 09:25N 01°16' E 103°49'0 0.0
2017-May-19 08:55N 01°16' E 103°49'0 0.0
2017-May-19 08:22N 01°16' E 103°49'0 0.0
2017-May-19 07:55N 01°16' E 103°49'0 0.0
2017-May-19 07:25N 01°16' E 103°49'0 0.4
2017-May-19 07:01N 01°16' E 103°49'2 4.6
2017-May-19 06:31N 01°15' E 103°47'4 7.7
2017-May-19 06:00N 01°14' E 103°43'5 9.2
2017-May-19 05:31N 01°12' E 103°39'4 7.9
2017-May-19 05:00N 01°12' E 103°35'4 8.2
2017-May-19 04:30N 01°11' E 103°31'5 7.2
2017-May-19 03:47N 01°11' E 103°26'3 7.1
2017-May-19 03:20N 01°13' E 103°23'45 6.8
2017-May-18 20:39N 01°38' E 102°45'3 7.6
2017-May-18 20:16N 01°39' E 102°43'1212.7
2017-May-18 19:18N 01°44' E 102°31'516.3
2017-May-18 19:00N 01°46' E 102°27'2222.0
2017-May-18 18:00N 01°54' E 102°06'   190 / 101011.010.8 28.026.730.0
Track history (hours):
 
Tides and Currents Weather Stations Pressure Air Temp Water Temp Dewpoint Dewpoint Depression Visibility Wind Speed Wind Dir Waves Ship Positions

Norwegian Dream

Operator: Norwegian Cruise Line

Last reported at 2017-May-28 06:23 UTC. Time now 2017-May-28 06:45 UTC.
Position N 01°16' E 103°49'.

Type: Ship. MMSI: 308272000.

Date/timePositionNaut miles runAvg speedWind from/ knotsBaromVisibWave heightAir tempDewpointWater temp
2017-May-28 06:23N 01°16' E 103°49'0 0.0
2017-May-28 05:20N 01°16' E 103°49'0 0.0
2017-May-28 04:51N 01°16' E 103°49'0 0.0
2017-May-28 04:24N 01°16' E 103°49'0 0.0
2017-May-28 02:54N 01°16' E 103°49'0 0.0
2017-May-28 02:30N 01°16' E 103°49'0 0.0
2017-May-28 01:44N 01°16' E 103°49'0 0.0
2017-May-28 01:29N 01°16' E 103°49'1 2.5
2017-May-28 01:00N 01°15' E 103°48'4 7.8
2017-May-28 00:30N 01°12' E 103°50'4 9.0
2017-May-28 00:00N 01°09' E 103°46'510.1
2017-May-27 23:30N 01°05' E 103°43'5 8.8
2017-May-27 22:57N 01°03' E 103°39'4 8.0
2017-May-27 22:30N 01°05' E 103°35'4 8.2
2017-May-27 22:00N 01°07' E 103°32'5 8.1
2017-May-27 21:25N 01°09' E 103°28'4 8.2
2017-May-27 20:59N 01°11' E 103°25'5 8.1
2017-May-27 20:22N 01°14' E 103°21'4 8.1
2017-May-27 19:55N 01°16' E 103°18'1910.1
2017-May-27 18:00N 01°24' E 103°00'15 6.3 090 / 101009.010.8 28.025.329.0
2017-May-27 15:34N 01°35' E 102°50'1 7.0
2017-May-27 15:28N 01°36' E 102°49'4 7.4
2017-May-27 14:56N 01°38' E 102°46'24 1.6
2017-May-27 00:24N 01°51' E 102°27'2 4.9
2017-May-27 00:00N 01°50' E 102°28'3 5.1
2017-May-26 23:27N 01°49' E 102°31'3 5.7
2017-May-26 22:58N 01°48' E 102°33'6 6.6
2017-May-26 22:06N 01°45' E 102°39'1 7.3
2017-May-26 22:00N 01°45' E 102°39'4 7.1
2017-May-26 21:24N 01°43' E 102°43'3 7.3
2017-May-26 20:59N 01°42' E 102°46'23 7.6
2017-May-26 18:00N 01°24' E 103°00'37 8.2 080 / 101010.010.8 28.025.329.0
2017-May-26 13:27N 01°11' E 103°35'715.1
2017-May-26 12:59N 01°10' E 103°42'714.2
2017-May-26 12:29N 01°11' E 103°49'4 9.0
2017-May-26 12:00N 01°15' E 103°47'2 0.9
2017-May-26 09:58N 01°16' E 103°49'0 0.0
2017-May-26 08:37N 01°16' E 103°49'0 0.0
2017-May-26 07:27N 01°16' E 103°49'0 0.0
2017-May-26 06:54N 01°16' E 103°49'0 0.0
2017-May-26 06:30N 01°16' E 103°49'0 0.0
2017-May-26 05:54N 01°16' E 103°49'0 0.0
2017-May-26 05:30N 01°16' E 103°49'0 0.0
2017-May-26 04:57N 01°16' E 103°49'0 0.0
2017-May-26 04:21N 01°16' E 103°49'0 0.0
2017-May-26 04:00N 01°16' E 103°49'0 0.1
2017-May-26 03:30N 01°16' E 103°49'2 4.3
2017-May-26 03:00N 01°15' E 103°47'4 8.4
2017-May-26 02:30N 01°12' E 103°50'5 9.0
2017-May-26 02:00N 01°09' E 103°46'510.9
2017-May-26 01:30N 01°05' E 103°42'5 9.9
2017-May-26 01:00N 01°04' E 103°38'4 8.8
2017-May-26 00:30N 01°07' E 103°34'4 7.1
2017-May-25 23:59N 01°10' E 103°34'1 1.1
2017-May-25 23:30N 01°11' E 103°35'1 2.0
2017-May-25 22:59N 01°10' E 103°34'611.9
2017-May-25 22:29N 01°10' E 103°28'914.6
2017-May-25 21:53N 01°15' E 103°20'39 9.9
2017-May-25 18:00N 01°36' E 102°48'4 5.8 040 / 141011.010.8 28.025.329.0
2017-May-25 17:21N 01°38' E 102°45'16 7.9
2017-May-25 15:16N 01°45' E 102°30'5 7.9
2017-May-25 14:38N 01°47' E 102°25'1 7.3
2017-May-25 14:27N 01°48' E 102°24'22 6.6
2017-May-25 11:03N 02°08' E 102°14'1 8.6
2017-May-25 10:59N 02°08' E 102°14'2 3.8
2017-May-25 10:29N 02°10' E 102°14'0 0.3
2017-May-25 09:57N 02°10' E 102°14'22 1.9
2017-May-24 22:38N 01°53' E 102°27'313.4
2017-May-24 22:25N 01°51' E 102°30'512.4
2017-May-24 21:59N 01°49' E 102°35'612.5
2017-May-24 21:30N 01°46' E 102°40'6316.9
2017-May-24 17:47N 01°12' E 103°33'411.4
2017-May-24 17:25N 01°11' E 103°37'512.5
2017-May-24 16:59N 01°09' E 103°42'511.1
2017-May-24 16:30N 01°10' E 103°47'4 7.6
2017-May-24 16:00N 01°14' E 103°47'3 0.5
2017-May-24 10:18N 01°16' E 103°49'0 1.0
2017-May-24 09:56N 01°16' E 103°49'3 7.7
2017-May-24 09:30N 01°15' E 103°46'1012.2
2017-May-24 08:42N 01°12' E 103°36'411.7
2017-May-24 08:18N 01°11' E 103°32'4812.7
2017-May-24 04:31N 01°36' E 102°51'213.6
2017-May-24 04:23N 01°37' E 102°49'513.4
2017-May-24 04:00N 01°39' E 102°45'2015.7
2017-May-24 02:45N 01°49' E 102°27'25915.5
2017-May-23 10:04N 05°19' E 099°56'2115.6
2017-May-23 08:43N 05°39' E 099°50'10 0.7
2017-May-22 18:00N 05°42' E 100°00'20 9.5 040 / 101011.010.8 28.025.328.0
2017-May-22 15:54N 05°32' E 100°17'811.9
2017-May-22 15:14N 05°25' E 100°21'0 1.4
2017-May-22 15:00N 05°25' E 100°21'0 0.0
2017-May-22 14:00N 05°25' E 100°21'0 0.0
2017-May-22 13:24N 05°25' E 100°21'0 0.0
2017-May-22 13:00N 05°25' E 100°21'0 0.0
2017-May-22 12:30N 05°25' E 100°21'0 0.0
2017-May-22 12:00N 05°25' E 100°21'0 0.0
2017-May-22 11:30N 05°25' E 100°21'0 0.0
2017-May-22 11:00N 05°25' E 100°21'0 0.0
2017-May-22 10:30N 05°25' E 100°21'0 0.0
2017-May-22 10:00N 05°25' E 100°21'0 0.0
2017-May-22 09:31N 05°25' E 100°21'0 0.0
2017-May-22 09:00N 05°25' E 100°21'0 0.0
2017-May-22 08:31N 05°25' E 100°21'0 0.0
2017-May-22 08:01N 05°25' E 100°21'0 0.3
2017-May-22 07:31N 05°25' E 100°21'4 7.8
2017-May-22 07:00N 05°29' E 100°20'913.6
2017-May-22 06:23N 05°34' E 100°13'1613.8
2017-May-22 05:14N 05°21' E 100°05'18316.3
2017-May-21 18:00N 02°36' E 101°24'9016.5 160 / 81009.010.8 29.026.330.0
2017-May-21 12:30N 01°45' E 102°39'816.7
2017-May-21 12:00N 01°42' E 102°46'5616.0
2017-May-21 08:28N 01°12' E 103°34'612.8
2017-May-21 07:59N 01°13' E 103°40'612.9
2017-May-21 07:30N 01°16' E 103°46'4 6.9
2017-May-21 06:59N 01°16' E 103°49'0 0.0
2017-May-21 06:04N 01°16' E 103°49'0 0.0
2017-May-21 05:58N 01°16' E 103°49'0 0.0
2017-May-21 05:28N 01°16' E 103°49'0 0.0
2017-May-21 04:41N 01°16' E 103°49'0 0.0
2017-May-21 04:29N 01°16' E 103°49'0 0.0
2017-May-21 03:44N 01°16' E 103°49'0 0.0
2017-May-21 03:26N 01°16' E 103°49'0 0.0
2017-May-21 02:59N 01°16' E 103°49'0 0.0
2017-May-21 01:32N 01°16' E 103°49'0 0.1
2017-May-21 01:30N 01°16' E 103°49'2 3.1
2017-May-21 00:59N 01°15' E 103°48'4 9.1
2017-May-21 00:30N 01°11' E 103°50'5 8.7
2017-May-20 23:59N 01°09' E 103°46'511.0
2017-May-20 23:30N 01°05' E 103°43'4 8.2
2017-May-20 23:00N 01°03' E 103°39'4 7.9
2017-May-20 22:30N 01°05' E 103°36'4 8.3
2017-May-20 21:58N 01°07' E 103°32'4 8.3
2017-May-20 21:29N 01°09' E 103°28'32 9.2
2017-May-20 18:00N 01°24' E 103°00'29 1.6 180 / 121008.010.8 28.025.329.0
2017-May-20 00:27N 01°45' E 102°40'3 6.3
2017-May-19 23:56N 01°43' E 102°43'3 6.3
2017-May-19 23:30N 01°42' E 102°45'3 6.6
2017-May-19 23:00N 01°41' E 102°48'33 6.5
2017-May-19 18:00N 01°18' E 103°12'22 8.7 180 / 61011.010.8 29.025.030.0
2017-May-19 15:27N 01°12' E 103°33'715.5
2017-May-19 14:59N 01°10' E 103°40'7 7.7
2017-May-19 14:00N 01°14' E 103°47'3 5.7
2017-May-19 13:30N 01°16' E 103°49'0 0.1
2017-May-19 12:49N 01°16' E 103°49'0 0.0
2017-May-19 12:28N 01°16' E 103°49'0 0.0
2017-May-19 11:55N 01°16' E 103°49'0 0.0
2017-May-19 11:28N 01°16' E 103°49'0 0.0
2017-May-19 10:58N 01°16' E 103°49'0 0.0
2017-May-19 10:28N 01°16' E 103°49'0 0.0
2017-May-19 09:49N 01°16' E 103°49'0 0.0
2017-May-19 09:25N 01°16' E 103°49'0 0.0
2017-May-19 08:55N 01°16' E 103°49'0 0.0
2017-May-19 08:22N 01°16' E 103°49'0 0.0
2017-May-19 07:55N 01°16' E 103°49'0 0.0
2017-May-19 07:25N 01°16' E 103°49'0 0.4
2017-May-19 07:01N 01°16' E 103°49'2 4.6
2017-May-19 06:31N 01°15' E 103°47'4 7.7
2017-May-19 06:00N 01°14' E 103°43'5 9.2
2017-May-19 05:31N 01°12' E 103°39'4 7.9
2017-May-19 05:00N 01°12' E 103°35'4 8.2
2017-May-19 04:30N 01°11' E 103°31'5 7.2
2017-May-19 03:47N 01°11' E 103°26'3 7.1
2017-May-19 03:20N 01°13' E 103°23'45 6.8
2017-May-18 20:39N 01°38' E 102°45'3 7.6
2017-May-18 20:16N 01°39' E 102°43'1212.7
2017-May-18 19:18N 01°44' E 102°31'516.3
2017-May-18 19:00N 01°46' E 102°27'2222.0
2017-May-18 18:00N 01°54' E 102°06'   190 / 101011.010.8 28.026.730.0

Dump ship's entire track history